METAR stanice u blizini

 

LYBE - Beograd / Surčin, Srbija
Ažurirano: 30/11/2022 18:30
Vedro
Vedro
 Pravac vetra I
Vetar: I 28 km/h
Temperatura: 5°C
Osećaj hladnoće: 1°C
Tačka rose: 1°C
Vlažnost: 76%
Pritisak: 1020 hPa
Pregled: Vedro
Vidljivost: greater than 10 km
2022/11/30 17:30 LYBE 301730Z 10015KT CAVOK 05/01 Q1020 NOSIG
LYBT - Beograd / Batajnica, Srbija
Ažurirano: 30/11/2022 18:30
Vedro
Vedro
 Pravac vetra I
Vetar: I 17 km/h
Temperatura: 5°C
Osećaj hladnoće: 2°C
Tačka rose: 1°C
Vlažnost: 76%
Pritisak: 1021 hPa
Pregled: Vedro
Vidljivost: greater than 10 km
2022/11/30 17:30 LYBT 301730Z 09009KT 040V130 CAVOK 05/01 Q1021 NOSIG
LYVR - Vršac, Srbija
Ažurirano: 30/11/2022 18:30
Vedro
Vedro
 Pravac vetra JJI
Vetar: JJI 24 km/h
Temperatura: 6°C
Osećaj hladnoće: 2°C
Tačka rose: 5°C
Vlažnost: 93%
Pritisak: 1021 hPa
Pregled: Vedro
Vidljivost: greater than 10 km
2022/11/30 17:30 LYVR 301730Z AUTO 15013KT CAVOK 06/05 Q1021
 
LYKV - Lađevci, Srbija
Ažurirano: 30/11/2022 18:30
Mostly Cloudy
Mostly Cloudy
 Pravac vetra JI
Vetar: JI 6 km/h
Temperatura: 5°C
Tačka rose: 3°C
Vlažnost: 87%
Pritisak: 1019 hPa
Oblaci: Mostly Cloudy
Vidljivost: 10 km
Cloud details: Mostly Cloudy 762 m
2022/11/30 17:30 LYKV 301730Z 13003KT 9999 BKN025 05/03 Q1019 NOSIG
LYNI - Niš, Srbija
Ažurirano: 30/11/2022 18:30
Few Clouds
Few Clouds
 Pravac vetra ISI
Vetar: ISI 11 km/h
Temperatura: 5°C
Osećaj hladnoće: 2°C
Tačka rose: 1°C
Vlažnost: 76%
Pritisak: 1019 hPa
Oblaci: Few Clouds
Vidljivost: 10 km
Cloud details: Few Clouds 518 m
2022/11/30 17:30 LYNI 301730Z 06006KT 010V110 9999 FEW017 05/01 Q1019 NOSIG
BKPR - Priština, Srbija
Ažurirano: 30/11/2022 18:30
Mostly Cloudy
Mostly Cloudy
 Pravac vetra S
Vetar: S 24 km/h
Temperatura: 4°C
Osećaj hladnoće: -1°C
Tačka rose: 2°C
Vlažnost: 87%
Pritisak: 1016 hPa
Oblaci: Mostly Cloudy
Vidljivost: 10 km
Cloud details: Mostly Cloudy 1067 m
2022/11/30 17:30 BKPR 301730Z 01013KT 9999 BKN035 04/02 Q1016 NOSIG
 
LHPP - Pecs / Pogany, Hungary
Ažurirano: 30/11/2022 18:15
Slaba kiša, Showers, Oblačno
Slaba kiša, Showers, Oblačno
 Pravac vetra SI
Vetar: SI 17 km/h
Temperatura: 3°C
Osećaj hladnoće: -1°C
Tačka rose: 3°C
Vlažnost: 100%
Pritisak: 1020 hPa
Pregled: Slaba kiša, Showers
Oblaci: Oblačno
Vidljivost: 9 km
Cloud details: Oblačno 1433 m
2022/11/30 17:15 LHPP 301715Z AUTO 05009KT 9000 -SHRA OVC047 03/03 Q1020
LHUD - Szeged, Hungary
Ažurirano: 04/07/2019 01:45
NOT Current
Vedro
Vedro
 Pravac vetra S
Vetar: S 7 km/h
Temperatura: 18°C
Tačka rose: 13°C
Vlažnost: 73%
Pritisak: 1019 hPa
Pregled: Vedro
Vidljivost: greater than 10 km
2019/07/03 23:45 LHUD 032345Z 35004KT CAVOK 18/13 Q1019
LRTR - Timisoara, Romania
Ažurirano: 30/11/2022 18:30
Vedro
Vedro
 Pravac vetra SSI
Vetar: SSI 4 km/h
Temperatura: 5°C
Tačka rose: 5°C
Vlažnost: 100%
Pritisak: 1021 hPa
Pregled: Vedro
Vidljivost: greater than 10 km
2022/11/30 17:30 LRTR 301730Z 02002KT CAVOK 05/05 Q1021
 
LRCV - Craiova, Romania
Ažurirano: 30/11/2022 18:30
Oblačno
Oblačno
 Pravac vetra I
Vetar: I 20 km/h
Oblaci: Oblačno
Vidljivost: 10 km
Cloud details: Mostly Cloudy 305 m
Oblačno 396 m
2022/11/30 17:30 LRCV 301730Z 08011KT 9999 BKN010 OVC013 03/// Q1024
LBSF - Sofia, Bulgaria
Ažurirano: 30/11/2022 18:30
Oblačno
Oblačno
 Pravac vetra JJI
Vetar: JJI 15 km/h
Temperatura: 4°C
Osećaj hladnoće: 1°C
Tačka rose: 2°C
Vlažnost: 87%
Pritisak: 1019 hPa
Oblaci: Oblačno
Vidljivost: 10 km
Cloud details: Mostly Cloudy 427 m
Oblačno 610 m
2022/11/30 17:30 LBSF 301730Z 15008KT 9999 BKN014 OVC020 04/02 Q1019 TEMPO BKN010
LWSK - Skoplje, Makedonija
Ažurirano: 30/11/2022 19:00
Slaba kiša, Mist, Oblačno
Slaba kiša, Mist, Oblačno
 Pravac vetra calm
Vetar: Tišina
Temperatura: 5°C
Tačka rose: 5°C
Vlažnost: 100%
Pritisak: 1017 hPa
Pregled: Slaba kiša, Mist
Oblaci: Oblačno
Vidljivost: 3 km
Cloud details: Few Clouds 914 m
Oblačno 1219 m
2022/11/30 18:00 LWSK 301800Z 00000KT 3000 -RA BR FEW030 OVC040 05/05 Q1017 NOSIG
 
LYPG - Podgorica, Crna Gora
Ažurirano: 30/11/2022 18:30
Mostly Cloudy
Mostly Cloudy
 Pravac vetra SSZ
Vetar: SSZ 6 km/h
Temperatura: 8°C
Tačka rose: 6°C
Vlažnost: 87%
Pritisak: 1013 hPa
Oblaci: Mostly Cloudy
Vidljivost: 10 km
Cloud details: Partly Cloudy 1219 m
Mostly Cloudy 2438 m
2022/11/30 17:30 LYPG 301730Z 33003KT 9999 SCT040 BKN080 08/06 Q1013 NOSIG
LQSA - Sarajevo, Bosna i Hercegovina
Ažurirano: 30/11/2022 18:30
Light drizzle, Mist, Oblačno
Light drizzle, Mist, Oblačno
 Pravac vetra ZSZ
Vetar: ZSZ 9 km/h
Temperatura: 3°C
Osećaj hladnoće: 0°C
Tačka rose: 3°C
Vlažnost: 100%
Pritisak: 1016 hPa
Pregled: Light drizzle, Mist
Oblaci: Oblačno
Vidljivost: 5 km
Cloud details: Oblačno 457 m
2022/11/30 17:30 LQSA 301730Z 30005KT 5000 -DZ BR OVC015 03/03 Q1016 NOSIG
LDOS - Osijek, Hrvatksa
Ažurirano: 30/11/2022 18:30
Mostly Cloudy
Mostly Cloudy
 Pravac vetra SI
Vetar: SI 20 km/h
Temperatura: 5°C
Osećaj hladnoće: 1°C
Tačka rose: 4°C
Vlažnost: 93%
Pritisak: 1020 hPa
Oblaci: Mostly Cloudy
Vidljivost: 7 km
Cloud details: Mostly Cloudy 1006 m
2022/11/30 17:30 LDOS 301730Z 05011KT 7000 BKN033 05/04 Q1020